Time;durP1;ratioP1;P1;durP2;ratioP2;P2;SDS_P1;SDS_P2;PMS_P1;PMS_P2;Temp;Humidity;BMP_temperature;BMP_pressure;BME280_temperature;BME280_humidity;BME280_pressure;Samples;Min_cycle;Max_cycle;Signal;HPM_P1;HPM_P2
2023/10/17 00:01:24;;;;;;;1.83;1.73;;;;;;;;;;5132821;27;20203;-41
2023/10/17 00:03:54;;;;;;;2.50;2.30;;;;;;;;;;5138070;27;20224;-38
2023/10/17 00:06:22;;;;;;;2.00;1.90;;;;;;;;;;5138787;27;20210;-38
2023/10/17 00:08:51;;;;;;;2.10;1.90;;;;;;;;;;5122953;27;20253;-40
2023/10/17 00:11:20;;;;;;;1.87;1.70;;;;;;;;;;5135205;27;20226;-41
2023/10/17 00:13:59;;;;;;;1.83;1.47;;;;;;;;;;5129076;27;20207;-43
2023/10/17 00:16:29;;;;;;;2.63;1.90;;;;;;;;;;5131272;27;20207;-45
2023/10/17 00:19:04;;;;;;;1.80;1.60;;;;;;;;;;5134867;27;20219;-42
2023/10/17 00:21:33;;;;;;;1.53;1.37;;;;;;;;;;5131567;27;20202;-42
2023/10/17 00:24:02;;;;;;;2.63;2.13;;;;;;;;;;5128271;27;20210;-38
2023/10/17 00:26:31;;;;;;;1.90;1.80;;;;;;;;;;5134378;27;20204;-39
2023/10/17 00:28:58;;;;;;;1.50;1.40;;;;;;;;;;5127691;27;20223;-38
2023/10/17 00:31:26;;;;;;;2.40;2.00;;;;;;;;;;5138239;27;20221;-38
2023/10/17 00:33:57;;;;;;;1.93;1.70;;;;;;;;;;5142566;27;20242;-41
2023/10/17 00:36:26;;;;;;;1.97;1.87;;;;;;;;;;5125336;27;20287;-35
2023/10/17 00:38:54;;;;;;;4.13;1.90;;;;;;;;;;5137613;27;20226;-37
2023/10/17 00:41:29;;;;;;;2.57;1.57;;;;;;;;;;5139885;27;20203;-36
2023/10/17 00:43:57;;;;;;;2.10;2.00;;;;;;;;;;5120316;27;20210;-42
2023/10/17 00:46:25;;;;;;;2.77;2.00;;;;;;;;;;5126959;27;20294;-34
2023/10/17 00:48:52;;;;;;;2.17;1.80;;;;;;;;;;5135389;27;20318;-36
2023/10/17 00:51:22;;;;;;;2.43;2.10;;;;;;;;;;5125209;27;20315;-38
2023/10/17 00:53:49;;;;;;;2.63;1.90;;;;;;;;;;5129856;27;20211;-39
2023/10/17 00:56:16;;;;;;;2.30;2.10;;;;;;;;;;5131060;27;20207;-39
2023/10/17 00:58:43;;;;;;;2.30;2.10;;;;;;;;;;5125678;27;20310;-38
2023/10/17 01:01:15;;;;;;;1.80;1.60;;;;;;;;;;5125538;27;20196;-37
2023/10/17 01:03:43;;;;;;;1.53;1.40;;;;;;;;;;5135901;27;20224;-40
2023/10/17 01:06:21;;;;;;;1.70;1.60;;;;;;;;;;5132544;27;20249;-39
2023/10/17 01:08:50;;;;;;;2.13;1.93;;;;;;;;;;5136392;27;20227;-37
2023/10/17 01:11:21;;;;;;;2.37;2.00;;;;;;;;;;5126871;27;20226;-37
2023/10/17 01:13:51;;;;;;;3.07;1.43;;;;;;;;;;5118795;27;20234;-36
2023/10/17 01:16:18;;;;;;;2.53;1.90;;;;;;;;;;5136070;27;20229;-40
2023/10/17 01:18:46;;;;;;;1.73;1.53;;;;;;;;;;5135629;27;20223;-36
2023/10/17 01:21:18;;;;;;;2.30;2.10;;;;;;;;;;5132651;27;20282;-41
2023/10/17 01:23:45;;;;;;;2.83;1.97;;;;;;;;;;5126385;27;20207;-38
2023/10/17 01:26:20;;;;;;;2.53;2.07;;;;;;;;;;5136236;27;20234;-43
2023/10/17 01:28:48;;;;;;;1.80;1.70;;;;;;;;;;5123688;27;20271;-40
2023/10/17 01:31:16;;;;;;;2.33;1.83;;;;;;;;;;5132890;27;20270;-38
2023/10/17 01:33:44;;;;;;;2.10;1.93;;;;;;;;;;5135712;27;20214;-38
2023/10/17 01:36:13;;;;;;;1.60;1.50;;;;;;;;;;5130740;27;20199;-36
2023/10/17 01:38:45;;;;;;;2.60;1.73;;;;;;;;;;5126056;27;20300;-38
2023/10/17 01:41:14;;;;;;;1.90;1.80;;;;;;;;;;5136483;27;20196;-36
2023/10/17 01:43:45;;;;;;;1.90;1.80;;;;;;;;;;5119910;27;20203;-37
2023/10/17 01:46:15;;;;;;;1.67;1.57;;;;;;;;;;5131702;27;20207;-38
2023/10/17 01:48:44;;;;;;;2.17;1.60;;;;;;;;;;5137207;27;20306;-39
2023/10/17 01:51:13;;;;;;;1.67;1.50;;;;;;;;;;5136976;27;20223;-34
2023/10/17 01:53:40;;;;;;;2.40;1.63;;;;;;;;;;5144453;27;20216;-38
2023/10/17 01:56:14;;;;;;;1.87;1.77;;;;;;;;;;5136405;27;20239;-39
2023/10/17 01:58:46;;;;;;;1.87;1.77;;;;;;;;;;5119895;27;20226;-39
2023/10/17 02:01:16;;;;;;;1.97;1.80;;;;;;;;;;5144654;27;20202;-36
2023/10/17 02:03:44;;;;;;;1.97;1.70;;;;;;;;;;5145811;27;20223;-38
2023/10/17 02:06:14;;;;;;;2.57;2.37;;;;;;;;;;5127018;27;20211;-40
2023/10/17 02:08:45;;;;;;;1.90;1.80;;;;;;;;;;5127960;27;20233;-38
2023/10/17 02:11:23;;;;;;;2.00;1.80;;;;;;;;;;5142174;27;20222;-41
2023/10/17 02:13:52;;;;;;;1.50;1.40;;;;;;;;;;5114900;27;20290;-41
2023/10/17 02:16:19;;;;;;;1.87;1.70;;;;;;;;;;5138575;27;20293;-36
2023/10/17 02:18:46;;;;;;;1.60;1.50;;;;;;;;;;5130602;27;20322;-39
2023/10/17 02:21:13;;;;;;;1.77;1.67;;;;;;;;;;5136337;27;20210;-42
2023/10/17 02:23:48;;;;;;;2.20;1.70;;;;;;;;;;5118484;27;20200;-42
2023/10/17 02:26:16;;;;;;;1.87;1.77;;;;;;;;;;5147799;27;20293;-40
2023/10/17 02:28:47;;;;;;;3.07;2.20;;;;;;;;;;5115857;27;20281;-41
2023/10/17 02:31:16;;;;;;;3.00;1.63;;;;;;;;;;5124327;27;20229;-39
2023/10/17 02:33:43;;;;;;;2.17;1.80;;;;;;;;;;5145472;27;20213;-35
2023/10/17 02:36:13;;;;;;;4.00;2.23;;;;;;;;;;5132482;27;20210;-40
2023/10/17 02:38:41;;;;;;;2.00;1.80;;;;;;;;;;5132638;27;20233;-39
2023/10/17 02:41:14;;;;;;;1.60;1.50;;;;;;;;;;5143840;27;20209;-39
2023/10/17 02:43:44;;;;;;;1.83;1.73;;;;;;;;;;5118691;27;20297;-41
2023/10/17 02:46:13;;;;;;;2.33;1.80;;;;;;;;;;5122689;27;20222;-36
2023/10/17 02:48:42;;;;;;;2.13;1.93;;;;;;;;;;5136744;27;20266;-35
2023/10/17 02:51:30;;;;;;;1.70;1.60;;;;;;;;;;5123154;27;20223;-38
2023/10/17 02:53:58;;;;;;;2.60;1.90;;;;;;;;;;5133040;27;20214;-37
2023/10/17 02:56:25;;;;;;;2.03;1.93;;;;;;;;;;5142413;27;20266;-36
2023/10/17 02:59:02;;;;;;;3.40;2.23;;;;;;;;;;5110529;27;20584;-39
2023/10/17 03:01:30;;;;;;;2.40;2.10;;;;;;;;;;5125022;28;20237;-39
2023/10/17 03:03:58;;;;;;;1.70;1.60;;;;;;;;;;5137590;27;20301;-38
2023/10/17 03:06:26;;;;;;;1.40;1.30;;;;;;;;;;5122456;27;20198;-42
2023/10/17 03:09:00;;;;;;;2.00;1.90;;;;;;;;;;5128555;27;20223;-38
2023/10/17 03:11:35;;;;;;;2.00;1.90;;;;;;;;;;5129016;27;20571;-35
2023/10/17 03:14:12;;;;;;;1.93;1.70;;;;;;;;;;5123103;27;20206;-38
2023/10/17 03:16:40;;;;;;;2.50;2.20;;;;;;;;;;5125935;27;20214;-41
2023/10/17 03:19:12;;;;;;;2.30;1.90;;;;;;;;;;5120850;27;20686;-36
2023/10/17 03:21:43;;;;;;;2.10;2.00;;;;;;;;;;5125189;27;20203;-34
2023/10/17 03:24:12;;;;;;;1.40;1.30;;;;;;;;;;5129680;28;20199;-37
2023/10/17 03:26:40;;;;;;;1.70;1.57;;;;;;;;;;5132484;28;20215;-41
2023/10/17 03:29:14;;;;;;;2.13;1.67;;;;;;;;;;5122078;27;20222;-37
2023/10/17 03:31:42;;;;;;;2.37;2.17;;;;;;;;;;5130078;27;20220;-38
2023/10/17 03:34:12;;;;;;;1.77;1.63;;;;;;;;;;5140317;27;20207;-38
2023/10/17 03:36:49;;;;;;;3.00;2.30;;;;;;;;;;5130279;27;20214;-38
2023/10/17 03:39:21;;;;;;;2.90;2.10;;;;;;;;;;5133251;27;20601;-44
2023/10/17 03:41:49;;;;;;;2.33;1.90;;;;;;;;;;5128932;28;20554;-41
2023/10/17 03:44:16;;;;;;;3.23;1.77;;;;;;;;;;5116451;28;20207;-39
2023/10/17 03:46:48;;;;;;;2.97;2.07;;;;;;;;;;5131754;28;20199;-39
2023/10/17 03:49:23;;;;;;;2.33;2.13;;;;;;;;;;5139937;27;20234;-35
2023/10/17 03:51:52;;;;;;;2.23;2.03;;;;;;;;;;5130898;27;20226;-40
2023/10/17 03:54:22;;;;;;;2.00;1.90;;;;;;;;;;5128010;27;20208;-40
2023/10/17 03:56:56;;;;;;;3.03;2.50;;;;;;;;;;5128785;27;20238;-43
2023/10/17 03:59:37;;;;;;;4.30;3.43;;;;;;;;;;5120046;27;20250;-39
2023/10/17 04:02:06;;;;;;;5.30;2.97;;;;;;;;;;5135226;27;20933;-37
2023/10/17 04:04:36;;;;;;;3.97;2.77;;;;;;;;;;5135479;27;20352;-33
2023/10/17 04:07:06;;;;;;;3.97;2.43;;;;;;;;;;5128806;27;20229;-39
2023/10/17 04:09:38;;;;;;;3.50;2.40;;;;;;;;;;5135332;27;20315;-37
2023/10/17 04:12:08;;;;;;;3.20;2.30;;;;;;;;;;5130934;27;20218;-37
2023/10/17 04:14:44;;;;;;;3.87;2.77;;;;;;;;;;5125977;27;20537;-38
2023/10/17 04:17:14;;;;;;;2.73;2.53;;;;;;;;;;5127845;27;20202;-35
2023/10/17 04:19:43;;;;;;;4.60;4.20;;;;;;;;;;5127544;27;20224;-40
2023/10/17 04:22:15;;;;;;;2.60;2.40;;;;;;;;;;5119977;27;20191;-39
2023/10/17 04:24:45;;;;;;;2.40;2.20;;;;;;;;;;5138799;27;20203;-40
2023/10/17 04:27:22;;;;;;;2.33;2.10;;;;;;;;;;5131753;27;20192;-37
2023/10/17 04:29:56;;;;;;;2.60;2.40;;;;;;;;;;5134547;27;20238;-40
2023/10/17 04:32:27;;;;;;;2.10;2.00;;;;;;;;;;5143088;27;20226;-39
2023/10/17 04:34:56;;;;;;;3.10;2.50;;;;;;;;;;5143786;27;20199;-36
2023/10/17 04:37:31;;;;;;;2.97;2.50;;;;;;;;;;5132739;27;20202;-42
2023/10/17 04:40:27;;;;;;;2.43;1.80;;;;;;;;;;5133531;27;20321;-37
2023/10/17 04:42:56;;;;;;;2.63;2.43;;;;;;;;;;5120802;27;20261;-38
2023/10/17 04:45:24;;;;;;;2.20;2.00;;;;;;;;;;5126397;27;20281;-42
2023/10/17 04:48:10;;;;;;;2.50;2.00;;;;;;;;;;5134165;27;20217;-43
2023/10/17 04:50:44;;;;;;;2.83;2.63;;;;;;;;;;5137620;27;20213;-39
2023/10/17 04:53:19;;;;;;;2.30;2.03;;;;;;;;;;5124944;27;20207;-39
2023/10/17 04:56:08;;;;;;;2.73;2.53;;;;;;;;;;5128827;27;20672;-39
2023/10/17 04:58:42;;;;;;;2.53;2.33;;;;;;;;;;5116076;27;20233;-41
2023/10/17 05:01:18;;;;;;;2.20;2.00;;;;;;;;;;5134829;27;20413;-37
2023/10/17 05:03:50;;;;;;;2.20;2.00;;;;;;;;;;5136362;27;20228;-40
2023/10/17 05:06:24;;;;;;;2.93;2.63;;;;;;;;;;5128520;27;20299;-37
2023/10/17 06:18:26;;;;;;;4.70;3.00;;;;;;;;;;5133384;27;20198;-36
2023/10/17 06:21:18;;;;;;;4.57;3.30;;;;;;;;;;5134634;27;20203;-34
2023/10/17 06:26:58;;;;;;;4.07;3.60;;;;;;;;;;5133649;27;20194;-39
2023/10/17 06:32:48;;;;;;;3.10;2.80;;;;;;;;;;5136838;27;20300;-37
2023/10/17 06:35:20;;;;;;;3.40;3.10;;;;;;;;;;5137907;27;20199;-36
2023/10/17 06:37:49;;;;;;;3.53;3.00;;;;;;;;;;5125565;27;20560;-35
2023/10/17 06:40:16;;;;;;;4.73;3.80;;;;;;;;;;5132954;27;20219;-36
2023/10/17 06:42:49;;;;;;;4.47;3.20;;;;;;;;;;5128297;27;20651;-35
2023/10/17 06:45:18;;;;;;;4.33;3.40;;;;;;;;;;5125999;27;20286;-35
2023/10/17 06:47:48;;;;;;;6.43;3.60;;;;;;;;;;5131256;27;20219;-36
2023/10/17 06:50:21;;;;;;;3.97;3.23;;;;;;;;;;5137274;27;20264;-38
2023/10/17 06:53:01;;;;;;;5.10;3.97;;;;;;;;;;5127803;27;20314;-39
2023/10/17 06:55:38;;;;;;;7.00;3.50;;;;;;;;;;5127908;28;20203;-35
2023/10/17 06:58:09;;;;;;;4.57;3.03;;;;;;;;;;5121971;27;20541;-35
2023/10/17 07:00:49;;;;;;;5.63;3.40;;;;;;;;;;5145959;27;20210;-35
2023/10/17 07:03:24;;;;;;;4.83;3.23;;;;;;;;;;5139961;27;20198;-41
2023/10/17 07:05:52;;;;;;;6.27;3.70;;;;;;;;;;5141423;27;20203;-31
2023/10/17 07:08:20;;;;;;;5.20;3.77;;;;;;;;;;5130046;27;20206;-35
2023/10/17 07:11:09;;;;;;;4.80;3.27;;;;;;;;;;5143388;27;20213;-33
2023/10/17 07:13:59;;;;;;;6.20;3.67;;;;;;;;;;5114420;27;20286;-34
2023/10/17 07:16:33;;;;;;;5.00;4.20;;;;;;;;;;5125888;28;20195;-39
2023/10/17 07:19:46;;;;;;;5.43;3.73;;;;;;;;;;5131275;27;20258;-38
2023/10/17 07:22:05;;;;;;;6.43;4.57;;;;;;;;;;5129099;27;20206;-35
2023/10/17 07:24:35;;;;;;;5.90;4.30;;;;;;;;;;5122993;28;20190;-33
2023/10/17 07:27:03;;;;;;;7.20;5.27;;;;;;;;;;5132739;27;20203;-39
2023/10/17 07:29:33;;;;;;;7.67;5.87;;;;;;;;;;5124225;27;20243;-39
2023/10/17 07:32:09;;;;;;;6.00;4.60;;;;;;;;;;5139473;27;20207;-38
2023/10/17 07:34:36;;;;;;;9.20;5.33;;;;;;;;;;5148439;27;20246;-37
2023/10/17 07:37:14;;;;;;;6.90;4.43;;;;;;;;;;5140178;27;20200;-36
2023/10/17 07:39:42;;;;;;;9.83;5.77;;;;;;;;;;5136180;27;20302;-36
2023/10/17 07:42:14;;;;;;;7.37;6.03;;;;;;;;;;5136734;27;20290;-40
2023/10/17 07:44:42;;;;;;;7.30;4.50;;;;;;;;;;5130058;27;20207;-37
2023/10/17 07:47:19;;;;;;;8.07;5.30;;;;;;;;;;5134595;27;20302;-34
2023/10/17 07:49:48;;;;;;;7.73;5.67;;;;;;;;;;5135168;27;20279;-38
2023/10/17 07:52:17;;;;;;;7.17;6.47;;;;;;;;;;5129398;27;20219;-35
2023/10/17 07:54:45;;;;;;;7.60;5.70;;;;;;;;;;5135256;27;20203;-37
2023/10/17 07:57:17;;;;;;;7.93;6.20;;;;;;;;;;5131993;27;20269;-36
2023/10/17 07:59:50;;;;;;;9.97;6.83;;;;;;;;;;5130016;27;20340;-35
2023/10/17 08:02:20;;;;;;;10.63;7.33;;;;;;;;;;5136976;27;20203;-40
2023/10/17 08:04:48;;;;;;;9.93;5.67;;;;;;;;;;5137541;27;20263;-40
2023/10/17 08:07:15;;;;;;;12.93;9.13;;;;;;;;;;5141129;27;20231;-34
2023/10/17 08:09:50;;;;;;;11.53;7.67;;;;;;;;;;5135982;27;20219;-39
2023/10/17 08:12:21;;;;;;;9.43;6.73;;;;;;;;;;5127589;27;20314;-36
2023/10/17 08:14:57;;;;;;;8.17;5.13;;;;;;;;;;5130767;27;20249;-40
2023/10/17 08:17:28;;;;;;;12.50;7.27;;;;;;;;;;5126463;27;20570;-37
2023/10/17 08:25:30;;;;;;;8.33;6.83;;;;;;;;;;5137314;27;20206;-35
2023/10/17 08:27:57;;;;;;;10.80;7.40;;;;;;;;;;5124959;27;20226;-35
2023/10/17 08:30:27;;;;;;;8.83;6.57;;;;;;;;;;5134045;27;20234;-39
2023/10/17 08:32:55;;;;;;;11.33;6.83;;;;;;;;;;5129990;27;20948;-38
2023/10/17 08:35:28;;;;;;;8.60;6.70;;;;;;;;;;5136769;27;20696;-41
2023/10/17 08:37:59;;;;;;;10.33;7.53;;;;;;;;;;5128158;27;20307;-38
2023/10/17 08:40:32;;;;;;;10.63;8.20;;;;;;;;;;5137394;27;20246;-32
2023/10/17 08:43:00;;;;;;;9.63;7.57;;;;;;;;;;5123178;27;20206;-40
2023/10/17 08:45:27;;;;;;;10.17;7.30;;;;;;;;;;5130938;27;20199;-41
2023/10/17 08:48:00;;;;;;;10.90;8.00;;;;;;;;;;5139339;27;20226;-35
2023/10/17 08:50:28;;;;;;;12.17;8.23;;;;;;;;;;5138682;27;20224;-38
2023/10/17 08:52:56;;;;;;;12.20;8.00;;;;;;;;;;5131767;27;20222;-38
2023/10/17 08:55:24;;;;;;;14.20;8.40;;;;;;;;;;5152417;27;20210;-35
2023/10/17 08:57:52;;;;;;;10.00;7.50;;;;;;;;;;5127990;27;20229;-34
2023/10/17 09:00:39;;;;;;;10.47;7.80;;;;;;;;;;5134092;27;20776;-36
2023/10/17 09:03:09;;;;;;;11.43;8.33;;;;;;;;;;5144232;27;20272;-37
2023/10/17 09:05:57;;;;;;;12.10;7.47;;;;;;;;;;5124487;27;20219;-38
2023/10/17 09:08:41;;;;;;;11.57;8.17;;;;;;;;;;5130391;27;20392;-33
2023/10/17 09:11:08;;;;;;;12.70;8.20;;;;;;;;;;5134365;27;20199;-34
2023/10/17 09:16:23;;;;;;;11.20;7.53;;;;;;;;;;5141882;27;20235;-35
2023/10/17 09:18:54;;;;;;;12.20;8.67;;;;;;;;;;5134596;27;20254;-36
2023/10/17 09:21:21;;;;;;;11.80;8.03;;;;;;;;;;5126946;27;20429;-37
2023/10/17 09:23:50;;;;;;;11.63;7.67;;;;;;;;;;5132926;27;20220;-35
2023/10/17 09:26:19;;;;;;;10.13;7.37;;;;;;;;;;5142269;27;20214;-39
2023/10/17 09:28:48;;;;;;;10.77;8.27;;;;;;;;;;5127640;27;20219;-38
2023/10/17 09:31:17;;;;;;;10.73;7.40;;;;;;;;;;5136277;27;20199;-38
2023/10/17 09:33:44;;;;;;;9.87;7.07;;;;;;;;;;5133413;27;20223;-43
2023/10/17 09:36:17;;;;;;;8.00;6.17;;;;;;;;;;5133107;27;20207;-39
2023/10/17 09:38:44;;;;;;;8.03;6.37;;;;;;;;;;5126959;27;20274;-40
2023/10/17 09:41:17;;;;;;;10.43;7.23;;;;;;;;;;5137242;27;20250;-38
2023/10/17 09:43:45;;;;;;;10.63;7.70;;;;;;;;;;5124205;27;20282;-38
2023/10/17 09:46:12;;;;;;;11.50;8.10;;;;;;;;;;5132997;27;20239;-42
2023/10/17 09:48:41;;;;;;;11.50;7.47;;;;;;;;;;5132263;27;20588;-41
2023/10/17 09:51:12;;;;;;;12.37;7.47;;;;;;;;;;5128145;27;20195;-38
2023/10/17 09:53:41;;;;;;;11.30;7.50;;;;;;;;;;5140661;27;20203;-36
2023/10/17 09:56:09;;;;;;;9.73;6.23;;;;;;;;;;5146297;27;20247;-36
2023/10/17 09:58:38;;;;;;;12.13;8.63;;;;;;;;;;5128559;27;20242;-36
2023/10/17 10:01:07;;;;;;;9.83;6.50;;;;;;;;;;5132489;27;20203;-32
2023/10/17 10:03:56;;;;;;;10.33;7.77;;;;;;;;;;5127220;27;20203;-36
2023/10/17 10:06:25;;;;;;;10.70;8.47;;;;;;;;;;5126188;27;20208;-32
2023/10/17 10:08:57;;;;;;;10.00;8.07;;;;;;;;;;5133300;27;20254;-39
2023/10/17 10:11:43;;;;;;;10.57;5.80;;;;;;;;;;5138558;27;20238;-40
2023/10/17 10:14:11;;;;;;;7.90;6.33;;;;;;;;;;5128910;27;20853;-37
2023/10/17 10:16:49;;;;;;;10.90;8.50;;;;;;;;;;5140590;27;20680;-41
2023/10/17 10:19:16;;;;;;;12.27;8.23;;;;;;;;;;5131933;27;20223;-36
2023/10/17 10:21:54;;;;;;;13.53;9.20;;;;;;;;;;5123179;27;20266;-34
2023/10/17 10:24:26;;;;;;;10.37;8.30;;;;;;;;;;5130568;27;20567;-38
2023/10/17 10:27:18;;;;;;;11.70;8.63;;;;;;;;;;5128013;27;20214;-35
2023/10/17 10:29:47;;;;;;;11.50;7.97;;;;;;;;;;5119483;27;20223;-40
2023/10/17 10:32:30;;;;;;;8.57;7.13;;;;;;;;;;5130769;27;20690;-38
2023/10/17 10:35:00;;;;;;;11.20;6.97;;;;;;;;;;5132259;27;20207;-38
2023/10/17 10:37:27;;;;;;;11.57;8.20;;;;;;;;;;5128020;27;20271;-39
2023/10/17 10:40:14;;;;;;;11.43;8.37;;;;;;;;;;5132231;27;20250;-38
2023/10/17 10:42:44;;;;;;;15.73;8.73;;;;;;;;;;5116948;27;20204;-38
2023/10/17 10:45:29;;;;;;;11.37;7.97;;;;;;;;;;5125798;27;20207;-35
2023/10/17 10:47:58;;;;;;;10.90;7.70;;;;;;;;;;5127027;27;20211;-40
2023/10/17 10:50:30;;;;;;;9.23;5.33;;;;;;;;;;5132496;27;20223;-35
2023/10/17 10:52:58;;;;;;;10.27;7.73;;;;;;;;;;5118742;27;20237;-37
2023/10/17 10:55:27;;;;;;;9.73;6.03;;;;;;;;;;5139304;27;20209;-38
2023/10/17 10:57:54;;;;;;;10.13;8.20;;;;;;;;;;5124296;27;20210;-38
2023/10/17 11:00:22;;;;;;;11.20;8.10;;;;;;;;;;5131955;27;20313;-37
2023/10/17 11:02:49;;;;;;;9.10;7.27;;;;;;;;;;5126431;28;20332;-39
2023/10/17 11:05:16;;;;;;;13.60;8.60;;;;;;;;;;5134863;27;20203;-38
2023/10/17 11:07:44;;;;;;;10.77;7.73;;;;;;;;;;5128197;27;20236;-37
2023/10/17 11:10:13;;;;;;;9.07;7.67;;;;;;;;;;5145514;27;20317;-36
2023/10/17 11:12:42;;;;;;;12.53;8.60;;;;;;;;;;5125801;27;20226;-42
2023/10/17 11:15:11;;;;;;;11.23;8.27;;;;;;;;;;5136530;27;20199;-36
2023/10/17 11:17:39;;;;;;;7.87;6.33;;;;;;;;;;5128714;27;20214;-36
2023/10/17 11:20:14;;;;;;;6.80;5.00;;;;;;;;;;5133846;27;20215;-35
2023/10/17 11:22:42;;;;;;;10.17;7.10;;;;;;;;;;5138637;27;20202;-38
2023/10/17 11:25:13;;;;;;;9.67;7.27;;;;;;;;;;5137563;27;20237;-38
2023/10/17 11:27:49;;;;;;;8.67;6.40;;;;;;;;;;5122206;27;20204;-37
2023/10/17 11:30:19;;;;;;;9.33;6.67;;;;;;;;;;5133708;27;20222;-39
2023/10/17 11:32:46;;;;;;;9.07;6.30;;;;;;;;;;5136195;27;20211;-40
2023/10/17 11:35:29;;;;;;;11.50;6.07;;;;;;;;;;5129596;27;20361;-38
2023/10/17 11:37:56;;;;;;;9.07;7.13;;;;;;;;;;5130344;27;20251;-42
2023/10/17 11:40:38;;;;;;;10.23;7.77;;;;;;;;;;5143942;27;20667;-39
2023/10/17 11:43:17;;;;;;;9.30;7.43;;;;;;;;;;5127776;27;20191;-36
2023/10/17 11:45:44;;;;;;;8.33;6.77;;;;;;;;;;5134461;27;20572;-35
2023/10/17 11:48:26;;;;;;;7.93;6.80;;;;;;;;;;5140381;27;20215;-36
2023/10/17 11:51:04;;;;;;;8.77;7.00;;;;;;;;;;5132145;27;20211;-33
2023/10/17 11:53:31;;;;;;;10.57;7.83;;;;;;;;;;5138767;27;20219;-39
2023/10/17 11:55:58;;;;;;;9.93;7.27;;;;;;;;;;5150836;27;20273;-34
2023/10/17 11:58:29;;;;;;;9.37;7.07;;;;;;;;;;5137193;27;20235;-37
2023/10/17 12:00:56;;;;;;;8.47;6.80;;;;;;;;;;5137730;27;20203;-35
2023/10/17 12:03:26;;;;;;;7.50;6.57;;;;;;;;;;5152438;27;20205;-36
2023/10/17 12:05:54;;;;;;;10.43;7.33;;;;;;;;;;5136354;27;20203;-41
2023/10/17 12:08:29;;;;;;;9.23;7.80;;;;;;;;;;5125410;27;20221;-37
2023/10/17 12:10:57;;;;;;;8.97;6.83;;;;;;;;;;5130319;27;20203;-39
2023/10/17 12:13:26;;;;;;;12.53;7.93;;;;;;;;;;5125318;27;20223;-37
2023/10/17 12:15:57;;;;;;;8.77;6.70;;;;;;;;;;5135370;27;20204;-40
2023/10/17 12:18:26;;;;;;;8.17;6.23;;;;;;;;;;5134983;27;20228;-36
2023/10/17 12:20:55;;;;;;;9.90;6.50;;;;;;;;;;5131603;27;20207;-35
2023/10/17 12:23:29;;;;;;;10.07;6.87;;;;;;;;;;5132206;27;20209;-35
2023/10/17 12:25:57;;;;;;;7.30;5.70;;;;;;;;;;5137742;27;20193;-34
2023/10/17 12:28:24;;;;;;;9.37;6.83;;;;;;;;;;5127165;27;20210;-42
2023/10/17 12:30:52;;;;;;;7.93;5.97;;;;;;;;;;5142074;27;20217;-39
2023/10/17 12:33:22;;;;;;;6.93;5.50;;;;;;;;;;5143578;27;20222;-39
2023/10/17 12:35:50;;;;;;;9.50;6.93;;;;;;;;;;5140385;27;20286;-43
2023/10/17 12:38:25;;;;;;;8.43;6.40;;;;;;;;;;5121707;27;20205;-44
2023/10/17 12:40:53;;;;;;;9.07;7.13;;;;;;;;;;5129471;27;20207;-38
2023/10/17 12:43:21;;;;;;;11.77;6.70;;;;;;;;;;5121450;27;20196;-41
2023/10/17 12:45:49;;;;;;;7.20;5.97;;;;;;;;;;5138780;27;20714;-41
2023/10/17 12:48:16;;;;;;;9.50;7.13;;;;;;;;;;5134674;27;20297;-42
2023/10/17 12:50:45;;;;;;;7.83;6.20;;;;;;;;;;5130089;27;20211;-39
2023/10/17 12:53:12;;;;;;;11.87;7.03;;;;;;;;;;5130722;27;20218;-38
2023/10/17 12:55:40;;;;;;;8.63;7.03;;;;;;;;;;5139904;27;20211;-37
2023/10/17 12:58:10;;;;;;;7.80;6.70;;;;;;;;;;5127153;27;20204;-41
2023/10/17 13:00:37;;;;;;;8.50;6.27;;;;;;;;;;5131208;27;20210;-37
2023/10/17 13:03:06;;;;;;;9.73;5.87;;;;;;;;;;5151419;27;20198;-39
2023/10/17 13:05:33;;;;;;;5.83;5.13;;;;;;;;;;5136415;27;20252;-39
2023/10/17 13:08:04;;;;;;;13.57;7.20;;;;;;;;;;5138832;27;20204;-35
2023/10/17 13:10:31;;;;;;;8.60;5.70;;;;;;;;;;5132294;27;20223;-37
2023/10/17 13:12:59;;;;;;;7.00;5.67;;;;;;;;;;5131635;27;20290;-37
2023/10/17 13:15:26;;;;;;;10.27;6.57;;;;;;;;;;5139746;27;20227;-39
2023/10/17 13:17:55;;;;;;;7.17;5.53;;;;;;;;;;5138617;27;20198;-38
2023/10/17 13:20:28;;;;;;;7.60;6.30;;;;;;;;;;5140618;27;20215;-41
2023/10/17 13:22:56;;;;;;;8.70;6.50;;;;;;;;;;5124115;27;20207;-39
2023/10/17 13:25:25;;;;;;;8.27;7.07;;;;;;;;;;5127721;27;20199;-35
2023/10/17 13:27:52;;;;;;;9.67;6.17;;;;;;;;;;5124794;27;20557;-40
2023/10/17 13:30:20;;;;;;;6.40;5.33;;;;;;;;;;5127603;27;20223;-38
2023/10/17 13:32:52;;;;;;;10.13;5.80;;;;;;;;;;5127706;27;20199;-32
2023/10/17 13:35:19;;;;;;;7.93;6.60;;;;;;;;;;5130846;27;20282;-35
2023/10/17 13:37:52;;;;;;;7.97;5.50;;;;;;;;;;5127269;27;20202;-34
2023/10/17 13:40:19;;;;;;;7.97;5.80;;;;;;;;;;5140977;27;20226;-38
2023/10/17 13:42:48;;;;;;;8.27;5.50;;;;;;;;;;5117340;27;20455;-42
2023/10/17 13:45:15;;;;;;;10.07;6.13;;;;;;;;;;5129918;27;20200;-36
2023/10/17 13:47:42;;;;;;;8.20;5.80;;;;;;;;;;5132360;27;20257;-38
2023/10/17 13:50:13;;;;;;;7.90;6.30;;;;;;;;;;5135908;27;20239;-39
2023/10/17 13:52:41;;;;;;;10.27;6.03;;;;;;;;;;5123253;27;20259;-42
2023/10/17 13:55:09;;;;;;;6.83;5.03;;;;;;;;;;5133321;27;20310;-40
2023/10/17 13:57:36;;;;;;;7.10;5.90;;;;;;;;;;5135692;27;20233;-36
2023/10/17 14:00:09;;;;;;;10.53;5.80;;;;;;;;;;5124247;27;20230;-39
2023/10/17 14:02:38;;;;;;;6.97;5.70;;;;;;;;;;5132613;27;20235;-39
2023/10/17 14:05:06;;;;;;;6.57;5.30;;;;;;;;;;5140478;27;20260;-37
2023/10/17 14:07:35;;;;;;;7.20;5.67;;;;;;;;;;5121229;27;20204;-36
2023/10/17 14:10:09;;;;;;;9.50;5.83;;;;;;;;;;5123855;27;20224;-38
2023/10/17 14:12:39;;;;;;;8.33;6.20;;;;;;;;;;5125199;27;20200;-39
2023/10/17 14:15:09;;;;;;;7.40;5.50;;;;;;;;;;5131661;27;20293;-37
2023/10/17 14:17:36;;;;;;;8.80;6.00;;;;;;;;;;5120083;27;20209;-40
2023/10/17 14:20:06;;;;;;;8.77;6.17;;;;;;;;;;5122376;27;20223;-41
2023/10/17 14:22:44;;;;;;;6.13;5.50;;;;;;;;;;5125472;27;20830;-40
2023/10/17 14:25:13;;;;;;;5.73;5.00;;;;;;;;;;5135086;27;20186;-37
2023/10/17 14:27:39;;;;;;;7.27;5.43;;;;;;;;;;5129577;27;20207;-38
2023/10/17 14:30:06;;;;;;;8.93;5.77;;;;;;;;;;5125820;27;20236;-38
2023/10/17 14:32:36;;;;;;;8.00;5.87;;;;;;;;;;5132776;27;20199;-38
2023/10/17 14:35:04;;;;;;;7.70;5.63;;;;;;;;;;5133199;27;20218;-39
2023/10/17 14:37:31;;;;;;;9.07;6.07;;;;;;;;;;5115545;27;20199;-37
2023/10/17 14:40:00;;;;;;;6.53;5.23;;;;;;;;;;5131393;27;20211;-39
2023/10/17 14:42:27;;;;;;;6.90;5.57;;;;;;;;;;5121638;27;20204;-43
2023/10/17 14:44:55;;;;;;;9.20;6.20;;;;;;;;;;5130875;27;20226;-35
2023/10/17 14:47:22;;;;;;;7.13;5.77;;;;;;;;;;5140925;27;20265;-38
2023/10/17 14:49:51;;;;;;;10.07;6.03;;;;;;;;;;5123728;27;20255;-40
2023/10/17 14:52:18;;;;;;;6.80;5.77;;;;;;;;;;5127295;27;20203;-37
2023/10/17 14:54:45;;;;;;;10.13;6.33;;;;;;;;;;5134429;27;20237;-37
2023/10/17 14:57:13;;;;;;;6.60;5.90;;;;;;;;;;5126882;27;20373;-40
2023/10/17 14:59:42;;;;;;;7.97;6.20;;;;;;;;;;5121419;27;20257;-40
2023/10/17 15:02:10;;;;;;;6.83;5.00;;;;;;;;;;5137979;27;20206;-36
2023/10/17 15:04:38;;;;;;;9.17;6.77;;;;;;;;;;5127677;27;20203;-39
2023/10/17 15:07:07;;;;;;;6.87;6.13;;;;;;;;;;5136193;27;20250;-38
2023/10/17 15:09:35;;;;;;;8.90;6.37;;;;;;;;;;5126709;27;20229;-42
2023/10/17 15:12:03;;;;;;;7.87;6.53;;;;;;;;;;5122721;28;20264;-37
2023/10/17 15:14:30;;;;;;;7.97;6.03;;;;;;;;;;5128046;28;20222;-40
2023/10/17 15:16:58;;;;;;;7.03;5.67;;;;;;;;;;5145276;27;20199;-38
2023/10/17 15:19:25;;;;;;;7.33;6.33;;;;;;;;;;5136070;27;20313;-36
2023/10/17 15:21:52;;;;;;;8.17;6.17;;;;;;;;;;5128816;28;20210;-36
2023/10/17 15:24:21;;;;;;;9.13;6.50;;;;;;;;;;5127498;28;20195;-40
2023/10/17 15:26:50;;;;;;;7.83;6.33;;;;;;;;;;5130799;27;20210;-42
2023/10/17 15:29:18;;;;;;;8.07;6.60;;;;;;;;;;5115757;27;20230;-36
2023/10/17 15:31:49;;;;;;;8.40;6.40;;;;;;;;;;5127773;27;20204;-37
2023/10/17 15:34:16;;;;;;;8.47;6.57;;;;;;;;;;5124907;28;20219;-38
2023/10/17 15:36:43;;;;;;;7.20;5.97;;;;;;;;;;5126226;27;20207;-34
2023/10/17 15:39:13;;;;;;;9.07;6.83;;;;;;;;;;5131420;27;20223;-39
2023/10/17 15:41:42;;;;;;;8.43;5.40;;;;;;;;;;5138352;27;20209;-35
2023/10/17 15:44:10;;;;;;;7.50;6.23;;;;;;;;;;5117118;27;20196;-36
2023/10/17 15:46:37;;;;;;;9.20;6.60;;;;;;;;;;5123909;27;20242;-36
2023/10/17 15:49:04;;;;;;;9.20;7.07;;;;;;;;;;5133246;27;20326;-39
2023/10/17 15:51:31;;;;;;;8.20;6.50;;;;;;;;;;5122188;27;20203;-36
2023/10/17 15:53:58;;;;;;;9.27;6.90;;;;;;;;;;5127884;27;20230;-37
2023/10/17 15:56:28;;;;;;;8.67;7.07;;;;;;;;;;5137169;27;20199;-35
2023/10/17 15:58:57;;;;;;;9.13;7.30;;;;;;;;;;5125918;27;20614;-40
2023/10/17 16:01:30;;;;;;;9.17;6.77;;;;;;;;;;5130249;27;20199;-40
2023/10/17 16:03:57;;;;;;;9.10;7.00;;;;;;;;;;5126159;27;20207;-37
2023/10/17 16:06:33;;;;;;;10.60;7.47;;;;;;;;;;5123645;27;20210;-39
2023/10/17 16:09:08;;;;;;;11.33;7.73;;;;;;;;;;5128240;27;20244;-36
2023/10/17 16:11:38;;;;;;;8.73;6.87;;;;;;;;;;5128868;27;20261;-35
2023/10/17 16:14:16;;;;;;;9.23;7.03;;;;;;;;;;5115727;27;20516;-39
2023/10/17 16:16:43;;;;;;;9.27;6.17;;;;;;;;;;5122023;27;20300;-40
2023/10/17 16:19:12;;;;;;;8.30;7.07;;;;;;;;;;5124382;27;20223;-40
2023/10/17 16:21:39;;;;;;;7.37;6.63;;;;;;;;;;5118719;27;20199;-38
2023/10/17 16:24:07;;;;;;;12.63;6.80;;;;;;;;;;5135753;27;20242;-40
2023/10/17 16:26:35;;;;;;;9.50;7.10;;;;;;;;;;5138405;27;20202;-41